createdAt,value
2023-06-17T00:00:56.889Z,15.98
2023-06-17T00:03:24.437Z,17.38
2023-06-17T00:05:52.913Z,17.92
2023-06-17T00:08:20.688Z,14.80
2023-06-17T00:10:47.805Z,18.08
2023-06-17T00:13:21.168Z,19.50
2023-06-17T00:15:52.133Z,17.55
2023-06-17T00:18:21.039Z,19.27
2023-06-17T00:20:49.248Z,18.45
2023-06-17T00:23:16.533Z,19.95
2023-06-17T00:25:44.049Z,24.15
2023-06-17T00:28:10.994Z,21.95
2023-06-17T00:30:38.401Z,22.13
2023-06-17T00:33:05.829Z,22.42
2023-06-17T00:35:34.018Z,20.75
2023-06-17T00:38:00.990Z,19.92
2023-06-17T00:40:28.302Z,20.35
2023-06-17T00:42:55.235Z,18.75
2023-06-17T00:45:22.462Z,19.75
2023-06-17T00:47:49.593Z,19.15
2023-06-17T00:50:17.036Z,19.70
2023-06-17T00:52:46.657Z,21.08
2023-06-17T00:55:13.719Z,21.60
2023-06-17T00:57:41.347Z,23.50
2023-06-17T01:00:12.570Z,21.48
2023-06-17T01:02:41.789Z,19.23
2023-06-17T01:05:12.844Z,20.58
2023-06-17T01:07:54.090Z,22.13
2023-06-17T01:10:37.709Z,20.38
2023-06-17T01:13:06.497Z,21.00
2023-06-17T01:15:35.896Z,20.38
2023-06-17T01:18:08.513Z,19.98
2023-06-17T01:20:37.395Z,21.23
2023-06-17T01:23:09.083Z,22.70
2023-06-17T01:25:36.622Z,24.08
2023-06-17T01:28:21.855Z,22.75
2023-06-17T01:30:49.405Z,25.70
2023-06-17T01:33:16.575Z,24.83
2023-06-17T01:35:52.641Z,24.38
2023-06-17T01:38:26.443Z,24.42
2023-06-17T01:41:02.617Z,24.95
2023-06-17T01:43:32.602Z,23.27
2023-06-17T01:46:00.509Z,27.67
2023-06-17T01:48:28.273Z,24.88
2023-06-17T01:50:55.149Z,26.75
2023-06-17T01:53:23.381Z,26.30
2023-06-17T01:55:50.929Z,27.75
2023-06-17T01:58:17.789Z,28.17
2023-06-17T02:00:45.098Z,25.98
2023-06-17T02:03:12.118Z,28.73
2023-06-17T02:05:39.422Z,26.50
2023-06-17T02:08:07.261Z,27.40
2023-06-17T02:10:34.793Z,27.65
2023-06-17T02:13:05.236Z,27.50
2023-06-17T02:15:32.430Z,25.95
2023-06-17T02:17:59.919Z,27.52
2023-06-17T02:20:27.550Z,27.23
2023-06-17T02:22:54.475Z,27.27
2023-06-17T02:25:21.356Z,31.38
2023-06-17T02:27:49.642Z,28.25
2023-06-17T02:30:16.544Z,28.60
2023-06-17T02:32:43.750Z,22.20
2023-06-17T02:35:14.027Z,21.50
2023-06-17T02:37:41.645Z,22.90
2023-06-17T02:40:10.488Z,25.10
2023-06-17T02:42:38.016Z,22.20
2023-06-17T02:45:05.818Z,22.02
2023-06-17T02:47:32.808Z,24.48
2023-06-17T02:50:00.193Z,23.17
2023-06-17T02:52:27.436Z,19.48
2023-06-17T02:54:54.327Z,22.92
2023-06-17T02:57:21.175Z,24.58
2023-06-17T02:59:48.626Z,21.92
2023-06-17T03:02:15.910Z,24.77
2023-06-17T03:04:42.916Z,22.58
2023-06-17T03:07:12.557Z,21.95
2023-06-17T03:09:39.934Z,23.80
2023-06-17T03:12:08.533Z,21.92
2023-06-17T03:14:35.387Z,23.00
2023-06-17T03:17:04.373Z,23.83
2023-06-17T03:19:31.382Z,22.15
2023-06-17T03:21:58.624Z,19.13
2023-06-17T03:24:26.289Z,18.85
2023-06-17T03:26:54.860Z,20.30
2023-06-17T03:29:22.302Z,18.75
2023-06-17T03:31:49.580Z,19.50
2023-06-17T03:34:16.844Z,19.45
2023-06-17T03:36:43.683Z,20.35
2023-06-17T03:39:10.903Z,20.25
2023-06-17T03:41:37.744Z,17.55
2023-06-17T03:44:05.103Z,18.08
2023-06-17T03:46:32.085Z,17.67
2023-06-17T03:48:58.946Z,16.45
2023-06-17T03:51:25.821Z,17.38
2023-06-17T03:53:52.704Z,17.40
2023-06-17T03:56:19.555Z,17.42
2023-06-17T03:58:46.383Z,18.33
2023-06-17T04:01:14.312Z,16.35
2023-06-17T04:03:41.572Z,15.65
2023-06-17T04:06:09.306Z,17.33
2023-06-17T04:08:37.288Z,16.45
2023-06-17T04:11:04.291Z,18.40
2023-06-17T04:13:31.559Z,16.30
2023-06-17T04:15:58.896Z,16.77
2023-06-17T04:18:26.331Z,15.82
2023-06-17T04:20:57.879Z,14.77
2023-06-17T04:23:25.786Z,14.60
2023-06-17T04:25:52.867Z,15.25
2023-06-17T04:28:20.233Z,15.02
2023-06-17T04:30:47.971Z,14.23
2023-06-17T04:33:15.878Z,15.27
2023-06-17T04:35:43.661Z,13.43
2023-06-17T04:38:11.737Z,13.30
2023-06-17T04:40:38.926Z,12.93
2023-06-17T04:43:05.903Z,19.42
2023-06-17T04:45:34.763Z,14.70
2023-06-17T04:48:05.315Z,14.70
2023-06-17T04:50:32.905Z,11.60
2023-06-17T04:53:05.589Z,12.98
2023-06-17T04:55:37.042Z,13.35
2023-06-17T04:58:04.945Z,12.60
2023-06-17T05:00:32.311Z,13.77
2023-06-17T05:02:59.452Z,11.02
2023-06-17T05:05:26.404Z,12.93
2023-06-17T05:07:53.690Z,14.05
2023-06-17T05:10:21.399Z,13.43
2023-06-17T05:12:48.482Z,13.90
2023-06-17T05:15:15.645Z,14.73
2023-06-17T05:17:44.957Z,13.10
2023-06-17T05:20:12.654Z,13.65
2023-06-17T05:22:39.832Z,11.32
2023-06-17T05:25:07.547Z,14.07
2023-06-17T05:27:34.896Z,13.60
2023-06-17T05:30:02.316Z,12.55
2023-06-17T05:32:29.177Z,12.27
2023-06-17T05:34:56.008Z,10.73
2023-06-17T05:37:23.708Z,10.02
2023-06-17T05:39:51.070Z,14.38
2023-06-17T05:42:18.356Z,13.23
2023-06-17T05:44:45.681Z,11.52
2023-06-17T05:47:12.960Z,12.48
2023-06-17T05:49:40.757Z,11.48
2023-06-17T05:52:08.260Z,13.13
2023-06-17T05:54:35.102Z,12.80
2023-06-17T05:57:01.945Z,13.85
2023-06-17T05:59:31.465Z,14.50
2023-06-17T06:01:58.868Z,12.60
2023-06-17T06:04:26.283Z,14.52
2023-06-17T06:06:53.215Z,12.85
2023-06-17T06:09:20.668Z,13.23
2023-06-17T06:11:47.588Z,16.88
2023-06-17T06:14:16.687Z,15.68
2023-06-17T06:16:46.320Z,16.27
2023-06-17T06:19:13.805Z,16.17
2023-06-17T06:21:41.384Z,16.15
2023-06-17T06:24:08.697Z,13.40
2023-06-17T06:26:36.100Z,16.17
2023-06-17T06:29:03.052Z,13.50
2023-06-17T06:31:29.907Z,14.75
2023-06-17T06:33:57.159Z,13.35
2023-06-17T06:36:24.444Z,14.57
2023-06-17T06:38:51.684Z,17.55
2023-06-17T06:41:18.704Z,18.45
2023-06-17T06:43:47.608Z,16.65
2023-06-17T06:46:16.339Z,16.10
2023-06-17T06:48:43.843Z,18.88
2023-06-17T06:51:11.276Z,14.75
2023-06-17T06:53:38.635Z,14.43
2023-06-17T06:56:05.638Z,16.23
2023-06-17T06:58:34.169Z,21.42
2023-06-17T07:01:01.119Z,19.27
2023-06-17T07:03:28.421Z,19.00
2023-06-17T07:05:55.375Z,20.58
2023-06-17T07:08:22.228Z,20.70
2023-06-17T07:10:49.190Z,19.67
2023-06-17T07:13:18.450Z,22.45
2023-06-17T07:15:46.517Z,19.35
2023-06-17T07:18:16.030Z,21.90
2023-06-17T07:20:43.977Z,22.15
2023-06-17T07:23:11.166Z,22.13
2023-06-17T07:25:38.472Z,22.98
2023-06-17T07:28:08.449Z,22.45
2023-06-17T07:30:35.590Z,23.20
2023-06-17T07:33:02.637Z,22.42
2023-06-17T07:35:30.294Z,20.55
2023-06-17T07:37:57.279Z,19.83
2023-06-17T07:40:24.317Z,19.85
2023-06-17T07:42:51.368Z,21.48
2023-06-17T07:45:18.656Z,17.27
2023-06-17T07:47:46.033Z,16.60
2023-06-17T07:50:13.284Z,16.63
2023-06-17T07:52:40.907Z,15.13
2023-06-17T07:55:10.083Z,15.85
2023-06-17T07:57:37.254Z,14.93
2023-06-17T08:00:10.480Z,22.20
2023-06-17T08:02:37.930Z,13.25
2023-06-17T08:05:05.089Z,12.30
2023-06-17T08:07:31.975Z,14.30
2023-06-17T08:09:59.268Z,13.75
2023-06-17T08:12:26.811Z,13.90
2023-06-17T08:14:54.020Z,16.05
2023-06-17T08:17:22.040Z,16.27
2023-06-17T08:19:49.384Z,18.05
2023-06-17T08:22:16.331Z,14.88
2023-06-17T08:24:43.895Z,15.27
2023-06-17T08:27:11.999Z,13.55
2023-06-17T08:29:39.016Z,15.30
2023-06-17T08:32:06.996Z,14.13
2023-06-17T08:34:36.269Z,14.35
2023-06-17T08:37:05.892Z,12.80
2023-06-17T08:39:33.498Z,12.82
2023-06-17T08:42:00.488Z,13.40
2023-06-17T08:44:32.984Z,14.50
2023-06-17T08:47:02.824Z,14.60
2023-06-17T08:49:29.956Z,12.00
2023-06-17T08:52:01.181Z,14.65
2023-06-17T08:54:29.573Z,14.38
2023-06-17T08:56:57.080Z,11.43
2023-06-17T08:59:23.965Z,11.77
2023-06-17T09:01:53.079Z,15.52
2023-06-17T09:04:23.210Z,11.45
2023-06-17T09:06:52.291Z,14.50
2023-06-17T09:09:19.300Z,26.88
2023-06-17T09:11:52.624Z,9.45
2023-06-17T09:14:23.663Z,13.35
2023-06-17T09:16:51.723Z,8.75
2023-06-17T09:19:19.314Z,11.05
2023-06-17T09:21:49.392Z,9.60
2023-06-17T09:24:16.528Z,9.27
2023-06-17T09:26:45.272Z,11.68
2023-06-17T09:29:13.897Z,10.25
2023-06-17T09:31:57.416Z,9.35
2023-06-17T09:34:26.290Z,9.82
2023-06-17T09:37:02.118Z,8.27
2023-06-17T09:39:33.881Z,8.73
2023-06-17T09:42:11.695Z,10.02
2023-06-17T09:44:40.657Z,9.60
2023-06-17T09:47:10.597Z,8.30
2023-06-17T09:49:38.486Z,10.63
2023-06-17T09:52:12.248Z,9.70
2023-06-17T09:54:42.343Z,10.23
2023-06-17T09:57:11.056Z,9.60
2023-06-17T09:59:38.941Z,9.25
2023-06-17T10:02:06.512Z,10.93
2023-06-17T10:04:35.151Z,9.02
2023-06-17T10:07:05.681Z,9.40
2023-06-17T10:09:32.673Z,10.43
2023-06-17T10:12:02.027Z,9.70
2023-06-17T10:14:34.592Z,12.38
2023-06-17T10:17:04.318Z,10.63
2023-06-17T10:19:34.725Z,7.93
2023-06-17T10:22:04.590Z,10.75
2023-06-17T10:24:32.161Z,8.38
2023-06-17T10:29:36.827Z,9.00
2023-06-17T10:32:26.913Z,10.35
2023-06-17T10:35:06.233Z,17.63
2023-06-17T10:37:49.655Z,10.25
2023-06-17T10:40:27.578Z,10.80
2023-06-17T10:43:04.673Z,10.40
2023-06-17T10:45:50.852Z,14.00
2023-06-17T10:48:31.987Z,7.55
2023-06-17T10:51:02.344Z,8.85
2023-06-17T10:53:31.090Z,7.63
2023-06-17T10:55:59.561Z,8.13
2023-06-17T10:58:31.908Z,8.35
2023-06-17T11:01:00.218Z,13.75
2023-06-17T11:03:27.828Z,15.05
2023-06-17T11:05:59.372Z,8.25
2023-06-17T11:08:27.478Z,8.55
2023-06-17T11:10:54.308Z,19.02
2023-06-17T11:13:24.730Z,7.63
2023-06-17T11:15:56.482Z,9.80
2023-06-17T11:18:23.457Z,7.28
2023-06-17T11:20:50.367Z,9.13
2023-06-17T11:23:18.923Z,7.72
2023-06-17T11:25:46.186Z,7.05
2023-06-17T11:28:13.345Z,7.03
2023-06-17T11:30:41.799Z,6.15
2023-06-17T11:33:09.577Z,5.00
2023-06-17T11:35:38.157Z,7.88
2023-06-17T11:38:06.203Z,7.13
2023-06-17T11:40:33.063Z,4.93
2023-06-17T11:43:00.701Z,6.65
2023-06-17T11:45:29.424Z,4.97
2023-06-17T11:47:56.367Z,5.20
2023-06-17T11:50:30.119Z,5.82
2023-06-17T11:53:00.297Z,5.78
2023-06-17T11:55:35.288Z,5.18
2023-06-17T11:58:03.635Z,6.20
2023-06-17T12:00:31.876Z,4.80
2023-06-17T12:02:59.117Z,5.05
2023-06-17T12:05:29.992Z,4.65
2023-06-17T12:08:01.722Z,4.78
2023-06-17T12:10:29.039Z,5.00
2023-06-17T12:12:57.309Z,5.45
2023-06-17T12:15:36.766Z,5.85
2023-06-17T12:18:12.077Z,5.78
2023-06-17T12:20:39.697Z,5.00
2023-06-17T12:23:06.676Z,5.30
2023-06-17T12:25:34.439Z,8.43
2023-06-17T12:28:03.149Z,5.43
2023-06-17T12:30:31.143Z,5.32
2023-06-17T12:32:58.841Z,6.93
2023-06-17T12:35:26.182Z,5.15
2023-06-17T12:37:56.983Z,6.82
2023-06-17T12:40:24.421Z,9.63
2023-06-17T12:42:51.336Z,16.73
2023-06-17T12:45:18.312Z,6.53
2023-06-17T12:47:46.096Z,5.20
2023-06-17T12:50:14.163Z,7.13
2023-06-17T12:52:42.635Z,5.45
2023-06-17T12:55:10.013Z,6.50
2023-06-17T12:57:37.713Z,5.20
2023-06-17T13:00:07.493Z,4.60
2023-06-17T13:02:37.112Z,6.30
2023-06-17T13:05:04.708Z,4.63
2023-06-17T13:07:32.101Z,5.72
2023-06-17T13:09:59.073Z,8.05
2023-06-17T13:12:26.055Z,7.05
2023-06-17T13:14:52.939Z,5.50
2023-06-17T13:17:20.209Z,5.53
2023-06-17T13:19:47.995Z,6.07
2023-06-17T13:22:14.853Z,5.55
2023-06-17T13:24:42.206Z,7.47
2023-06-17T13:27:09.143Z,5.45
2023-06-17T13:29:36.273Z,6.22
2023-06-17T13:32:03.761Z,5.65
2023-06-17T13:34:31.045Z,5.72
2023-06-17T13:36:58.654Z,5.70
2023-06-17T13:39:25.955Z,6.63
2023-06-17T13:41:53.320Z,5.97
2023-06-17T13:44:20.664Z,16.58
2023-06-17T13:46:48.742Z,10.45
2023-06-17T13:49:16.067Z,6.13
2023-06-17T13:51:42.938Z,12.27
2023-06-17T13:54:10.461Z,8.98
2023-06-17T13:56:38.011Z,7.47
2023-06-17T13:59:05.251Z,5.78
2023-06-17T14:01:32.130Z,7.82
2023-06-17T14:03:59.606Z,6.70
2023-06-17T14:06:27.058Z,5.32
2023-06-17T14:08:53.940Z,8.80
2023-06-17T14:11:23.477Z,7.13
2023-06-17T14:13:50.877Z,13.43
2023-06-17T14:16:18.221Z,5.95
2023-06-17T14:18:45.152Z,6.60
2023-06-17T14:21:29.069Z,11.55
2023-06-17T14:24:05.890Z,18.92
2023-06-17T14:26:35.036Z,7.13
2023-06-17T14:29:02.704Z,5.93
2023-06-17T14:31:30.275Z,5.63
2023-06-17T14:33:59.546Z,7.35
2023-06-17T14:36:27.202Z,5.22
2023-06-17T14:38:54.744Z,7.05
2023-06-17T14:41:22.138Z,9.60
2023-06-17T14:43:49.157Z,11.77
2023-06-17T14:46:16.168Z,8.40
2023-06-17T14:48:43.464Z,10.65
2023-06-17T14:51:10.893Z,9.88
2023-06-17T14:53:41.640Z,7.13
2023-06-17T14:56:31.225Z,5.97
2023-06-17T14:58:59.918Z,7.43
2023-06-17T15:01:33.473Z,10.60
2023-06-17T15:04:00.906Z,6.80
2023-06-17T15:06:27.742Z,5.95
2023-06-17T15:09:20.895Z,6.28
2023-06-17T15:11:47.731Z,6.72
2023-06-17T15:14:15.005Z,10.98
2023-06-17T15:16:42.358Z,8.35
2023-06-17T15:19:09.634Z,5.45
2023-06-17T15:21:36.863Z,9.90
2023-06-17T15:24:03.889Z,9.88
2023-06-17T15:26:30.849Z,11.00
2023-06-17T15:28:58.093Z,8.65
2023-06-17T15:31:25.736Z,9.23
2023-06-17T15:33:53.177Z,7.47
2023-06-17T15:36:20.470Z,6.85
2023-06-17T15:38:47.351Z,7.45
2023-06-17T15:41:14.592Z,5.80
2023-06-17T15:43:41.964Z,12.07
2023-06-17T15:46:08.944Z,9.98
2023-06-17T15:48:36.213Z,20.80
2023-06-17T15:51:04.164Z,7.85
2023-06-17T15:53:31.731Z,9.02
2023-06-17T15:55:58.640Z,6.43
2023-06-17T15:58:25.478Z,8.25
2023-06-17T16:00:52.808Z,5.70
2023-06-17T16:03:28.609Z,7.10
2023-06-17T16:05:56.201Z,10.02
2023-06-17T16:08:23.096Z,8.13
2023-06-17T16:10:50.398Z,8.77
2023-06-17T16:13:17.432Z,10.25
2023-06-17T16:15:44.406Z,7.05
2023-06-17T16:18:11.560Z,14.70
2023-06-17T16:20:38.523Z,9.05
2023-06-17T16:23:05.391Z,6.97
2023-06-17T16:25:40.913Z,9.20
2023-06-17T16:28:19.536Z,8.73
2023-06-17T16:30:46.488Z,8.23
2023-06-17T16:33:13.389Z,8.00
2023-06-17T16:35:41.044Z,11.40
2023-06-17T16:38:08.343Z,7.35
2023-06-17T16:40:35.190Z,8.27
2023-06-17T16:43:02.265Z,6.70
2023-06-17T16:45:29.561Z,7.03
2023-06-17T16:47:57.036Z,7.95
2023-06-17T16:50:24.540Z,11.63
2023-06-17T16:52:52.085Z,11.38
2023-06-17T16:55:19.349Z,11.45
2023-06-17T16:57:46.951Z,10.90
2023-06-17T17:00:14.088Z,10.80
2023-06-17T17:02:41.538Z,8.57
2023-06-17T17:05:08.718Z,9.77
2023-06-17T17:07:35.666Z,11.35
2023-06-17T17:10:02.938Z,9.00
2023-06-17T17:12:30.233Z,8.85
2023-06-17T17:14:57.256Z,8.85
2023-06-17T17:17:24.190Z,9.30
2023-06-17T17:19:51.530Z,10.50
2023-06-17T17:22:18.382Z,12.20
2023-06-17T17:24:48.044Z,12.50
2023-06-17T17:27:15.478Z,12.02
2023-06-17T17:29:42.702Z,10.93
2023-06-17T17:32:09.801Z,11.38
2023-06-17T17:34:36.678Z,15.00
2023-06-17T17:37:03.997Z,13.43
2023-06-17T17:39:31.224Z,18.00
2023-06-17T17:41:59.084Z,13.55
2023-06-17T17:44:26.051Z,11.32
2023-06-17T17:46:53.344Z,12.50
2023-06-17T17:49:21.636Z,14.15
2023-06-17T17:51:48.664Z,21.13
2023-06-17T17:54:15.914Z,11.50
2023-06-17T17:56:43.203Z,13.32
2023-06-17T17:59:10.560Z,13.77
2023-06-17T18:01:37.626Z,12.55
2023-06-17T18:04:05.001Z,12.68
2023-06-17T18:06:31.887Z,13.20
2023-06-17T18:08:59.121Z,13.77
2023-06-17T18:11:27.589Z,13.75
2023-06-17T18:13:54.977Z,16.75
2023-06-17T18:16:23.279Z,15.13
2023-06-17T18:18:51.177Z,12.10
2023-06-17T18:21:18.635Z,11.98
2023-06-17T18:23:46.122Z,13.20
2023-06-17T18:26:13.046Z,13.23
2023-06-17T18:28:40.408Z,14.65
2023-06-17T18:31:07.350Z,13.52
2023-06-17T18:33:34.231Z,13.43
2023-06-17T18:36:01.476Z,14.32
2023-06-17T18:38:28.355Z,17.48
2023-06-17T18:40:55.722Z,22.85
2023-06-17T18:43:22.980Z,14.60
2023-06-17T18:45:50.408Z,19.23
2023-06-17T18:48:18.217Z,14.15
2023-06-17T18:50:45.140Z,17.08
2023-06-17T18:53:11.963Z,16.88
2023-06-17T18:55:40.274Z,17.60
2023-06-17T18:58:07.549Z,16.25
2023-06-17T19:00:36.391Z,18.02
2023-06-17T19:03:04.176Z,17.55
2023-06-17T19:05:31.505Z,18.00
2023-06-17T19:07:58.736Z,16.77
2023-06-17T19:10:26.139Z,17.05
2023-06-17T19:12:53.102Z,17.45
2023-06-17T19:15:21.826Z,18.00
2023-06-17T19:17:48.795Z,18.15
2023-06-17T19:20:16.108Z,21.48
2023-06-17T19:22:43.422Z,17.20
2023-06-17T19:25:10.822Z,15.73
2023-06-17T19:27:37.674Z,23.70
2023-06-17T19:30:06.016Z,20.00
2023-06-17T19:32:33.896Z,17.38
2023-06-17T19:35:01.633Z,17.25
2023-06-17T19:37:29.892Z,17.67
2023-06-17T19:39:57.204Z,18.67
2023-06-17T19:42:24.485Z,21.95
2023-06-17T19:44:58.616Z,18.50
2023-06-17T19:47:27.541Z,16.70
2023-06-17T19:49:56.890Z,15.48
2023-06-17T19:52:24.712Z,17.02
2023-06-17T19:54:53.237Z,17.65
2023-06-17T19:57:20.847Z,18.42
2023-06-17T19:59:48.399Z,18.08
2023-06-17T20:02:15.375Z,20.90
2023-06-17T20:04:42.240Z,17.58
2023-06-17T20:07:09.508Z,18.23
2023-06-17T20:09:36.822Z,16.00
2023-06-17T20:12:04.237Z,15.32
2023-06-17T20:14:31.532Z,19.15
2023-06-17T20:16:59.287Z,15.88
2023-06-17T20:19:26.529Z,15.85
2023-06-17T20:21:53.825Z,18.65
2023-06-17T20:24:21.788Z,21.23
2023-06-17T20:26:48.679Z,20.60
2023-06-17T20:29:16.124Z,21.25
2023-06-17T20:31:42.979Z,28.50
2023-06-17T20:34:10.313Z,20.45
2023-06-17T20:36:37.830Z,18.08
2023-06-17T20:39:05.728Z,17.02
2023-06-17T20:41:32.659Z,16.95
2023-06-17T20:43:59.519Z,17.20
2023-06-17T20:46:26.762Z,20.08
2023-06-17T20:48:54.059Z,18.10
2023-06-17T20:51:21.617Z,18.20
2023-06-17T20:53:48.746Z,18.65
2023-06-17T20:56:15.630Z,18.17
2023-06-17T20:58:42.488Z,18.20
2023-06-17T21:01:10.048Z,21.50
2023-06-17T21:03:37.311Z,18.30
2023-06-17T21:06:05.494Z,17.52
2023-06-17T21:08:32.440Z,20.67
2023-06-17T21:10:59.903Z,21.05
2023-06-17T21:13:26.854Z,20.83
2023-06-17T21:15:53.764Z,18.30
2023-06-17T21:18:21.605Z,18.90
2023-06-17T21:20:48.911Z,20.00
2023-06-17T21:23:16.344Z,18.17
2023-06-17T21:25:46.067Z,17.50
2023-06-17T21:28:12.963Z,18.85
2023-06-17T21:30:39.828Z,17.80
2023-06-17T21:33:07.094Z,16.67
2023-06-17T21:35:33.970Z,15.98
2023-06-17T21:38:01.273Z,18.10
2023-06-17T21:40:28.113Z,20.05
2023-06-17T21:42:55.535Z,21.45
2023-06-17T21:45:22.629Z,17.33
2023-06-17T21:47:50.009Z,22.73
2023-06-17T21:50:17.406Z,19.02
2023-06-17T21:52:44.243Z,20.25
2023-06-17T21:55:11.479Z,20.48
2023-06-17T21:57:38.375Z,18.00
2023-06-17T22:00:07.013Z,20.15
2023-06-17T22:02:34.331Z,19.73
2023-06-17T22:05:01.958Z,19.50
2023-06-17T22:07:28.864Z,20.42
2023-06-17T22:09:55.872Z,20.90
2023-06-17T22:12:23.476Z,20.13
2023-06-17T22:14:50.385Z,19.45
2023-06-17T22:17:17.289Z,19.80
2023-06-17T22:19:45.597Z,19.15
2023-06-17T22:22:12.441Z,19.20
2023-06-17T22:24:39.763Z,18.92
2023-06-17T22:27:07.504Z,22.08
2023-06-17T22:29:34.843Z,21.83
2023-06-17T22:32:01.704Z,19.88
2023-06-17T22:34:28.562Z,18.52
2023-06-17T22:36:56.178Z,18.45
2023-06-17T22:39:23.459Z,22.75
2023-06-17T22:41:50.345Z,18.20
2023-06-17T22:44:17.385Z,20.38
2023-06-17T22:46:44.694Z,22.02
2023-06-17T22:49:12.007Z,23.13
2023-06-17T22:51:39.556Z,23.55
2023-06-17T22:54:06.384Z,19.13
2023-06-17T22:56:33.319Z,23.92
2023-06-17T22:59:00.626Z,21.40
2023-06-17T23:01:28.086Z,25.92
2023-06-17T23:03:55.373Z,21.27
2023-06-17T23:06:22.283Z,22.85
2023-06-17T23:08:49.514Z,21.90
2023-06-17T23:11:16.976Z,22.63
2023-06-17T23:13:44.232Z,22.45
2023-06-17T23:16:11.498Z,26.10
2023-06-17T23:18:39.148Z,20.02
2023-06-17T23:21:06.793Z,23.48
2023-06-17T23:23:33.678Z,21.77
2023-06-17T23:26:01.646Z,23.20
2023-06-17T23:28:28.495Z,20.92
2023-06-17T23:30:55.718Z,20.25
2023-06-17T23:33:23.022Z,24.90
2023-06-17T23:35:50.328Z,24.52
2023-06-17T23:38:17.604Z,24.95
2023-06-17T23:40:44.893Z,24.83
2023-06-17T23:43:12.154Z,22.73
2023-06-17T23:45:39.230Z,26.08
2023-06-17T23:48:06.831Z,24.80
2023-06-17T23:50:34.136Z,26.30
2023-06-17T23:53:01.362Z,22.17
2023-06-17T23:55:28.666Z,22.17
2023-06-17T23:57:55.533Z,22.88
